Time;durP1;ratioP1;P1;durP2;ratioP2;P2;SDS_P1;SDS_P2;PMS_P1;PMS_P2;Temp;Humidity;BMP_temperature;BMP_pressure;BME280_temperature;BME280_humidity;BME280_pressure;Samples;Min_cycle;Max_cycle;Signal;HPM_P1;HPM_P2
2022/08/22 00:01:47;;;;;;;8.40;4.35;;;18.30;1.00;;;;;;7358109;19;20041;-66
2022/08/22 00:04:27;;;;;;;10.52;4.65;;;18.30;1.00;;;;;;7360174;19;20086;-66
2022/08/22 00:07:08;;;;;;;6.90;4.25;;;18.40;1.00;;;;;;7361888;19;20021;-66
2022/08/22 00:09:50;;;;;;;8.02;5.00;;;18.40;1.00;;;;;;7361625;19;20110;-65
2022/08/22 00:12:29;;;;;;;6.20;4.13;;;18.40;1.00;;;;;;7375972;19;20018;-66
2022/08/22 00:15:05;;;;;;;7.28;4.40;;;18.40;1.00;;;;;;7382101;19;20228;-66
2022/08/22 00:17:44;;;;;;;8.95;4.43;;;18.40;1.00;;;;;;7359721;19;20086;-65
2022/08/22 00:20:23;;;;;;;12.95;4.40;;;18.50;1.00;;;;;;7354969;19;20306;-66
2022/08/22 00:23:00;;;;;;;7.13;4.25;;;18.40;1.00;;;;;;7360510;19;20069;-66
2022/08/22 00:25:49;;;;;;;7.83;4.00;;;18.40;1.00;;;;;;7360244;19;20021;-66
2022/08/22 00:28:24;;;;;;;8.43;4.45;;;18.40;1.00;;;;;;7362032;19;20389;-66
2022/08/22 00:31:10;;;;;;;5.05;3.53;;;18.30;1.00;;;;;;7356561;19;20015;-66
2022/08/22 00:33:46;;;;;;;9.05;4.45;;;18.30;1.00;;;;;;7360648;19;20424;-64
2022/08/22 00:36:27;;;;;;;8.23;5.07;;;18.20;1.00;;;;;;7383187;19;20018;-65
2022/08/22 00:39:11;;;;;;;9.25;4.43;;;18.20;1.00;;;;;;7360969;19;20011;-65
2022/08/22 00:42:09;;;;;;;6.85;4.32;;;18.20;1.00;;;;;;7357026;19;20010;-65
2022/08/22 00:45:01;;;;;;;7.93;4.15;;;18.20;1.00;;;;;;7358641;19;20091;-66
2022/08/22 00:47:56;;;;;;;7.97;4.28;;;18.10;1.00;;;;;;7359011;19;20021;-65
2022/08/22 00:51:00;;;;;;;5.80;4.30;;;18.10;1.00;;;;;;7355258;19;20006;-65
2022/08/22 00:53:50;;;;;;;6.20;4.13;;;18.00;1.00;;;;;;7358094;19;20097;-65
2022/08/22 00:56:49;;;;;;;8.98;4.70;;;17.90;1.00;;;;;;7361089;19;20501;-65
2022/08/22 00:59:51;;;;;;;7.35;4.45;;;17.90;1.00;;;;;;7360262;19;20010;-65
2022/08/22 01:02:39;;;;;;;6.35;3.95;;;17.90;1.00;;;;;;7360284;19;20083;-65
2022/08/22 01:05:27;;;;;;;8.45;4.60;;;17.80;1.00;;;;;;7358769;19;20010;-66
2022/08/22 01:08:17;;;;;;;8.75;5.03;;;17.60;1.00;;;;;;7360294;19;20121;-64
2022/08/22 01:11:12;;;;;;;7.32;4.80;;;17.60;1.00;;;;;;7363659;19;20101;-66
2022/08/22 01:13:58;;;;;;;7.05;4.68;;;17.60;1.00;;;;;;7367566;19;20093;-65
2022/08/22 01:16:53;;;;;;;8.13;4.97;;;17.60;1.00;;;;;;7365111;19;20040;-65
2022/08/22 01:20:08;;;;;;;6.72;4.20;;;17.50;1.00;;;;;;7367609;19;20035;-66
2022/08/22 01:23:12;;;;;;;7.35;5.20;;;17.40;1.00;;;;;;7363115;19;20116;-65
2022/08/22 01:26:19;;;;;;;8.35;4.60;;;17.30;1.00;;;;;;7363726;19;20107;-65
2022/08/22 01:29:26;;;;;;;9.35;5.57;;;17.30;1.00;;;;;;7366408;19;20077;-64
2022/08/22 01:32:35;;;;;;;7.35;4.80;;;17.10;1.00;;;;;;7361343;19;20017;-65
2022/08/22 01:35:17;;;;;;;8.30;4.80;;;17.00;1.00;;;;;;7364234;19;20011;-64
2022/08/22 01:38:15;;;;;;;6.68;4.57;;;16.90;1.00;;;;;;7363472;19;20095;-64
2022/08/22 01:41:17;;;;;;;5.55;4.50;;;16.70;1.00;;;;;;7360243;19;20367;-64
2022/08/22 01:44:13;;;;;;;7.90;4.78;;;16.60;1.00;;;;;;7365727;19;20019;-64
2022/08/22 01:46:53;;;;;;;6.72;4.88;;;16.40;1.00;;;;;;7365221;19;20010;-64
2022/08/22 01:49:27;;;;;;;7.93;4.53;;;16.30;1.00;;;;;;7366981;19;20542;-65
2022/08/22 01:52:07;;;;;;;7.72;4.90;;;16.20;1.00;;;;;;7361069;19;20007;-65
2022/08/22 01:54:46;;;;;;;7.85;4.57;;;16.20;1.00;;;;;;7364586;19;20018;-66
2022/08/22 01:57:18;;;;;;;10.60;5.28;;;16.00;1.00;;;;;;7387065;19;20042;-65
2022/08/22 01:59:51;;;;;;;8.10;4.93;;;15.90;1.00;;;;;;7363118;19;20469;-65
2022/08/22 02:02:51;;;;;;;7.93;5.20;;;15.80;1.00;;;;;;7365264;19;20012;-65
2022/08/22 02:05:30;;;;;;;6.80;4.78;;;15.60;1.70;;;;;;7362169;19;20086;-65
2022/08/22 02:08:08;;;;;;;7.25;5.18;;;15.60;2.80;;;;;;7364992;19;20006;-65
2022/08/22 02:10:52;;;;;;;7.20;5.18;;;15.50;3.20;;;;;;7360739;19;20086;-65
2022/08/22 02:13:34;;;;;;;6.55;5.00;;;15.50;4.10;;;;;;7364518;19;20034;-66
2022/08/22 02:16:13;;;;;;;9.70;5.40;;;15.60;4.20;;;;;;7362131;19;20128;-66
2022/08/22 02:18:55;;;;;;;6.40;5.10;;;15.70;3.70;;;;;;7365275;19;20470;-65
2022/08/22 02:21:40;;;;;;;7.10;5.18;;;15.50;4.00;;;;;;7357937;19;20027;-65
2022/08/22 02:24:26;;;;;;;7.20;5.05;;;15.50;4.10;;;;;;7383918;19;20013;-65
2022/08/22 02:27:08;;;;;;;7.47;4.70;;;15.60;4.10;;;;;;7364225;19;20019;-65
2022/08/22 02:29:44;;;;;;;7.95;5.13;;;15.60;4.10;;;;;;7364114;19;20002;-65
2022/08/22 02:32:22;;;;;;;7.30;4.82;;;15.60;4.20;;;;;;7365414;19;20090;-65
2022/08/22 02:35:02;;;;;;;8.10;5.22;;;15.70;4.20;;;;;;7361183;19;20025;-65
2022/08/22 02:37:38;;;;;;;8.45;5.60;;;15.60;4.10;;;;;;7364175;19;20047;-65
2022/08/22 02:40:17;;;;;;;8.38;5.45;;;15.70;4.70;;;;;;7362381;19;20014;-65
2022/08/22 02:42:57;;;;;;;8.25;5.22;;;15.70;4.30;;;;;;7364121;19;20014;-65
2022/08/22 02:45:37;;;;;;;7.88;5.38;;;15.70;5.00;;;;;;7362004;19;20478;-66
2022/08/22 02:48:16;;;;;;;8.52;5.90;;;15.80;4.90;;;;;;7387415;19;20371;-66
2022/08/22 02:50:55;;;;;;;7.80;5.70;;;15.90;3.90;;;;;;7361407;19;20422;-66
2022/08/22 02:53:38;;;;;;;9.70;5.57;;;15.90;3.20;;;;;;7362954;19;20042;-66
2022/08/22 02:56:15;;;;;;;8.43;5.65;;;16.00;3.10;;;;;;7361561;19;20474;-66
2022/08/22 02:58:54;;;;;;;9.80;5.70;;;16.00;2.60;;;;;;7364572;19;20046;-65
2022/08/22 03:01:41;;;;;;;10.05;6.28;;;16.00;3.30;;;;;;7360302;19;20127;-65
2022/08/22 03:04:24;;;;;;;11.88;5.25;;;16.00;2.00;;;;;;7360160;19;20010;-65
2022/08/22 03:07:19;;;;;;;8.68;5.50;;;16.00;1.90;;;;;;7361864;19;20406;-65
2022/08/22 03:09:58;;;;;;;7.93;6.25;;;16.10;1.00;;;;;;7362164;19;20034;-65
2022/08/22 03:12:34;;;;;;;7.97;5.70;;;16.10;1.00;;;;;;7363412;19;20018;-65
2022/08/22 03:15:13;;;;;;;9.57;5.50;;;16.10;1.00;;;;;;7383862;19;20052;-65
2022/08/22 03:17:52;;;;;;;10.95;5.90;;;16.00;1.00;;;;;;7361463;19;20010;-65
2022/08/22 03:20:41;;;;;;;9.25;5.75;;;15.90;1.30;;;;;;7359068;19;20018;-65
2022/08/22 03:23:18;;;;;;;8.80;5.95;;;15.90;1.40;;;;;;7362990;19;20022;-65
2022/08/22 03:25:56;;;;;;;8.98;6.20;;;15.80;1.30;;;;;;7360882;19;20081;-65
2022/08/22 03:28:35;;;;;;;9.95;6.38;;;15.90;2.40;;;;;;7362389;19;20019;-65
2022/08/22 03:31:14;;;;;;;9.68;6.60;;;15.90;2.60;;;;;;7359468;19;20687;-65
2022/08/22 03:33:45;;;;;;;10.93;7.00;;;15.70;3.20;;;;;;7360030;19;20041;-65
2022/08/22 03:36:29;;;;;;;9.10;7.20;;;15.60;3.20;;;;;;7381638;19;20014;-65
2022/08/22 03:39:14;;;;;;;8.43;6.68;;;15.70;4.10;;;;;;7363241;19;20014;-65
2022/08/22 03:42:19;;;;;;;11.65;6.97;;;15.60;3.10;;;;;;7358522;19;20018;-65
2022/08/22 03:45:14;;;;;;;9.32;6.93;;;15.60;3.60;;;;;;7360209;19;20077;-65
2022/08/22 03:48:13;;;;;;;9.80;6.63;;;15.50;4.00;;;;;;7360521;19;20018;-65
2022/08/22 03:51:16;;;;;;;10.65;6.25;;;15.60;4.10;;;;;;7359230;19;20359;-65
2022/08/22 03:54:13;;;;;;;8.40;6.25;;;15.50;4.00;;;;;;7361080;19;20424;-65
2022/08/22 03:57:07;;;;;;;11.80;6.38;;;15.50;5.60;;;;;;7360362;19;20011;-66
2022/08/22 04:00:03;;;;;;;10.83;6.77;;;15.50;4.90;;;;;;7362796;19;20846;-66
2022/08/22 04:03:06;;;;;;;10.63;5.80;;;15.40;5.30;;;;;;7360561;19;20007;-65
2022/08/22 04:06:06;;;;;;;9.32;5.85;;;15.30;6.00;;;;;;7358720;19;20043;-65
2022/08/22 04:09:05;;;;;;;10.82;5.80;;;15.10;7.30;;;;;;7362235;19;20014;-65
2022/08/22 04:12:07;;;;;;;8.27;5.95;;;15.10;7.00;;;;;;7357199;19;20026;-65
2022/08/22 04:15:04;;;;;;;7.18;5.03;;;15.00;9.00;;;;;;7356031;19;20064;-64
2022/08/22 04:18:04;;;;;;;8.45;5.70;;;15.00;9.20;;;;;;7359424;19;20405;-65
2022/08/22 04:21:06;;;;;;;10.73;6.13;;;15.00;8.90;;;;;;7355944;19;20022;-64
2022/08/22 04:24:03;;;;;;;8.10;6.55;;;15.20;8.70;;;;;;7359697;19;20439;-65
2022/08/22 04:26:42;;;;;;;9.50;6.28;;;15.20;8.50;;;;;;7356538;19;20018;-66
2022/08/22 04:29:20;;;;;;;11.48;6.93;;;15.30;8.40;;;;;;7360587;19;20508;-65
2022/08/22 04:31:58;;;;;;;12.50;7.22;;;15.40;7.70;;;;;;7357281;19;20016;-65
2022/08/22 04:34:36;;;;;;;10.88;6.43;;;15.40;7.80;;;;;;7355831;19;20025;-65
2022/08/22 04:37:15;;;;;;;9.55;5.40;;;15.40;7.80;;;;;;7360175;19;20451;-65
2022/08/22 04:39:52;;;;;;;10.25;6.00;;;15.30;7.70;;;;;;7359522;19;20372;-65
2022/08/22 04:42:29;;;;;;;12.15;6.45;;;15.30;8.00;;;;;;7362618;19;20010;-65
2022/08/22 04:45:07;;;;;;;9.60;5.80;;;15.20;7.80;;;;;;7379783;19;20010;-65
2022/08/22 04:47:45;;;;;;;8.13;6.03;;;15.50;6.00;;;;;;7357973;19;20017;-64
2022/08/22 04:50:27;;;;;;;7.18;5.72;;;16.10;1.90;;;;;;7356345;19;20395;-64
2022/08/22 04:53:19;;;;;;;7.90;5.97;;;16.50;1.00;;;;;;7360505;19;20017;-65
2022/08/22 04:55:58;;;;;;;8.32;5.72;;;17.10;1.00;;;;;;7356846;19;20025;-65
2022/08/22 04:58:45;;;;;;;10.35;6.22;;;17.30;1.00;;;;;;7360283;19;20078;-66
2022/08/22 05:01:19;;;;;;;9.23;5.80;;;17.70;1.00;;;;;;7354250;19;20042;-65
2022/08/22 05:03:57;;;;;;;7.05;5.68;;;18.40;1.00;;;;;;7357860;19;20015;-65
2022/08/22 05:06:30;;;;;;;9.35;5.72;;;19.00;1.00;;;;;;7356709;19;20047;-66
2022/08/22 05:09:04;;;;;;;7.65;5.63;;;19.30;1.00;;;;;;7381804;19;20457;-66
2022/08/22 05:11:36;;;;;;;6.90;5.40;;;19.70;1.00;;;;;;7355467;19;20018;-65
2022/08/22 05:14:11;;;;;;;6.60;4.95;;;20.00;1.00;;;;;;7358373;19;20025;-66
2022/08/22 05:16:44;;;;;;;13.02;5.30;;;20.40;1.00;;;;;;7359408;19;20089;-65
2022/08/22 05:19:21;;;;;;;8.67;5.87;;;20.40;1.00;;;;;;7358707;19;20015;-65
2022/08/22 05:22:01;;;;;;;8.77;5.65;;;20.60;1.00;;;;;;7355792;19;20055;-66
2022/08/22 05:24:35;;;;;;;12.15;5.97;;;20.30;1.00;;;;;;7354511;19;20014;-65
2022/08/22 05:27:13;;;;;;;8.93;5.45;;;20.20;1.00;;;;;;7380261;19;20035;-65
2022/08/22 05:29:47;;;;;;;9.57;5.15;;;20.70;1.00;;;;;;7357319;19;20017;-65
2022/08/22 05:32:23;;;;;;;8.52;5.28;;;20.80;1.00;;;;;;7360502;19;20036;-66
2022/08/22 05:35:00;;;;;;;7.22;5.07;;;21.00;1.00;;;;;;7354838;19;20053;-65
2022/08/22 05:37:38;;;;;;;10.88;5.97;;;21.10;1.00;;;;;;7357590;19;20470;-66
2022/08/22 05:40:13;;;;;;;8.90;5.15;;;20.60;1.00;;;;;;7357511;19;20316;-65
2022/08/22 05:42:44;;;;;;;8.75;5.15;;;21.10;1.00;;;;;;7357079;19;20040;-65
2022/08/22 05:45:18;;;;;;;8.27;5.45;;;19.10;1.00;;;;;;7379305;19;20037;-65
2022/08/22 05:47:52;;;;;;;7.88;4.95;;;18.40;1.00;;;;;;7356053;19;20074;-65
2022/08/22 05:50:33;;;;;;;7.15;5.18;;;18.20;1.00;;;;;;7353572;19;20007;-65
2022/08/22 05:53:08;;;;;;;6.75;4.85;;;18.00;1.00;;;;;;7357882;19;20010;-66
2022/08/22 05:55:48;;;;;;;6.53;4.85;;;17.80;1.00;;;;;;7357746;19;20010;-65
2022/08/22 05:58:47;;;;;;;7.18;4.70;;;17.80;1.00;;;;;;7363197;19;20089;-66
2022/08/22 06:01:26;;;;;;;6.95;4.93;;;17.70;1.00;;;;;;7360983;19;20034;-66
2022/08/22 06:04:07;;;;;;;7.72;5.00;;;17.70;1.00;;;;;;7363435;19;20011;-66
2022/08/22 06:06:42;;;;;;;7.57;5.43;;;18.10;1.00;;;;;;7361780;19;20037;-66
2022/08/22 06:09:21;;;;;;;8.95;5.07;;;18.00;1.00;;;;;;7387179;19;20069;-65
2022/08/22 06:11:59;;;;;;;5.97;4.75;;;18.00;1.00;;;;;;7360635;19;20025;-65
2022/08/22 06:14:39;;;;;;;8.73;5.03;;;18.20;1.00;;;;;;7360683;19;20477;-65
2022/08/22 06:17:15;;;;;;;7.63;4.85;;;18.30;1.00;;;;;;7364330;19;20071;-67
2022/08/22 06:19:49;;;;;;;7.93;5.40;;;18.50;1.00;;;;;;7362743;19;20096;-66
2022/08/22 06:22:26;;;;;;;6.05;5.10;;;18.30;1.00;;;;;;7364604;19;20099;-63
2022/08/22 06:25:01;;;;;;;7.10;5.20;;;18.20;1.00;;;;;;7359417;19;20043;-67
2022/08/22 06:27:32;;;;;;;7.47;4.65;;;18.20;1.00;;;;;;7361706;19;20025;-66
2022/08/22 06:30:04;;;;;;;6.80;5.13;;;18.00;1.00;;;;;;7380271;19;20018;-64
2022/08/22 06:32:40;;;;;;;9.10;5.45;;;17.90;1.00;;;;;;7363064;19;20804;-66
2022/08/22 06:36:29;;;;;;;9.52;7.68;;;18.20;1.00;;;;;;7359943;19;20130;-66
2022/08/22 06:38:32;;;;;;;13.57;7.82;;;18.70;1.00;;;;;;7361353;19;20169;-65
2022/08/22 06:41:05;;;;;;;14.30;9.68;;;18.70;1.00;;;;;;7356749;19;20038;-66
2022/08/22 06:43:40;;;;;;;13.15;9.88;;;18.70;1.00;;;;;;7360877;19;20015;-66
2022/08/22 06:46:12;;;;;;;13.57;6.57;;;18.70;1.00;;;;;;7356895;19;20438;-65
2022/08/22 06:48:42;;;;;;;9.88;5.55;;;19.00;1.00;;;;;;7364308;19;20004;-65
2022/08/22 06:51:14;;;;;;;9.43;5.88;;;18.70;1.00;;;;;;7380771;19;20113;-65
2022/08/22 06:53:52;;;;;;;9.88;5.40;;;18.90;1.00;;;;;;7358365;19;20019;-65
2022/08/22 06:56:25;;;;;;;10.15;6.03;;;19.10;1.00;;;;;;7358537;19;20018;-66
2022/08/22 06:58:58;;;;;;;6.40;4.50;;;19.40;1.00;;;;;;7363839;19;20014;-65
2022/08/22 07:01:32;;;;;;;9.30;5.18;;;19.20;1.00;;;;;;7359989;19;20766;-66
2022/08/22 07:04:07;;;;;;;7.03;4.65;;;19.60;1.00;;;;;;7361850;19;20010;-64
2022/08/22 07:06:40;;;;;;;11.93;5.47;;;19.50;1.00;;;;;;7357468;19;20042;-66
2022/08/22 07:09:21;;;;;;;9.48;5.30;;;19.60;1.00;;;;;;7383653;19;20458;-65
2022/08/22 07:11:53;;;;;;;8.98;5.22;;;19.70;1.00;;;;;;7357439;19;20014;-65
2022/08/22 07:14:30;;;;;;;6.93;4.70;;;20.00;1.00;;;;;;7358857;19;20025;-66
2022/08/22 07:17:03;;;;;;;9.73;5.40;;;20.10;1.00;;;;;;7360904;19;20060;-65
2022/08/22 07:19:35;;;;;;;9.05;5.50;;;19.90;1.00;;;;;;7362053;19;20489;-65
2022/08/22 07:22:14;;;;;;;8.68;5.57;;;20.00;1.00;;;;;;7358712;19;20010;-65
2022/08/22 07:24:52;;;;;;;7.43;5.55;;;20.00;1.00;;;;;;7356040;19;20078;-66
2022/08/22 07:27:36;;;;;;;10.73;6.20;;;20.30;1.00;;;;;;7360840;19;20018;-66
2022/08/22 07:30:10;;;;;;;9.23;5.63;;;20.50;1.00;;;;;;7379663;19;20014;-66
2022/08/22 07:32:50;;;;;;;8.30;5.05;;;20.40;1.00;;;;;;7361054;19;20014;-65
2022/08/22 07:35:24;;;;;;;10.45;5.13;;;20.50;1.00;;;;;;7358931;19;20019;-66
2022/08/22 07:38:01;;;;;;;6.57;4.60;;;20.60;1.00;;;;;;7362425;19;20042;-66
2022/08/22 07:40:38;;;;;;;6.65;5.15;;;20.70;1.00;;;;;;7358515;19;20013;-66
2022/08/22 07:43:21;;;;;;;6.10;4.90;;;20.70;1.00;;;;;;7360292;19;20435;-66
2022/08/22 07:45:55;;;;;;;7.43;4.80;;;20.60;1.00;;;;;;7357721;19;20028;-66
2022/08/22 07:48:28;;;;;;;7.88;4.63;;;20.90;1.00;;;;;;7360124;19;20014;-65
2022/08/22 07:51:03;;;;;;;8.55;5.18;;;20.70;1.00;;;;;;7377209;19;20355;-66
2022/08/22 07:53:40;;;;;;;8.27;5.28;;;20.90;1.00;;;;;;7358722;19;20492;-66
2022/08/22 07:56:15;;;;;;;12.73;5.78;;;21.10;1.00;;;;;;7356957;19;20860;-65
2022/08/22 07:58:50;;;;;;;7.30;4.97;;;21.50;1.00;;;;;;7361825;19;20014;-66
2022/08/22 08:01:21;;;;;;;;;;;21.70;1.00;;;;;;7359147;19;20010;-65
2022/08/22 08:03:55;;;;;;;6.05;4.13;;;21.90;1.00;;;;;;7357877;19;19922;-65
2022/08/22 08:06:27;;;;;;;6.38;3.95;;;21.80;1.00;;;;;;7358122;19;20014;-64
2022/08/22 08:08:58;;;;;;;8.02;4.40;;;22.10;1.00;;;;;;7382941;19;20014;-66
2022/08/22 08:11:37;;;;;;;8.27;4.20;;;22.20;1.00;;;;;;7357322;19;20093;-66
2022/08/22 08:14:10;;;;;;;4.97;3.90;;;22.40;1.00;;;;;;7359119;19;20053;-65
2022/08/22 08:16:46;;;;;;;7.97;4.13;;;22.60;1.00;;;;;;7357282;19;20014;-65
2022/08/22 08:19:20;;;;;;;8.02;4.28;;;22.80;1.00;;;;;;7359565;19;20466;-66
2022/08/22 08:21:53;;;;;;;6.97;4.23;;;22.60;1.00;;;;;;7354045;19;20089;-65
2022/08/22 08:24:28;;;;;;;8.55;4.30;;;22.70;1.00;;;;;;7355052;19;20102;-64
2022/08/22 08:30:02;;;;;;;5.47;4.07;;;23.10;1.00;;;;;;7354633;19;20019;-66
2022/08/22 08:32:36;;;;;;;6.15;3.70;;;23.10;1.00;;;;;;7359860;19;20017;-66
2022/08/22 08:35:09;;;;;;;8.02;4.72;;;23.30;1.00;;;;;;7354802;19;20018;-65
2022/08/22 08:37:44;;;;;;;6.07;4.35;;;23.30;1.00;;;;;;7358775;19;20010;-65
2022/08/22 08:40:26;;;;;;;6.70;3.90;;;23.40;1.00;;;;;;7354395;19;20039;-66
2022/08/22 08:46:26;;;;;;;6.30;4.03;;;23.50;1.00;;;;;;7352923;19;20014;-66
2022/08/22 08:49:11;;;;;;;9.77;4.90;;;23.30;1.00;;;;;;7358251;19;20282;-65
2022/08/22 08:52:04;;;;;;;5.97;4.10;;;23.30;1.00;;;;;;7352972;19;20035;-65
2022/08/22 08:54:50;;;;;;;5.93;4.50;;;23.10;1.00;;;;;;7355443;19;20014;-65
2022/08/22 08:57:35;;;;;;;6.20;4.20;;;23.30;1.00;;;;;;7378899;19;20053;-65
2022/08/22 09:00:13;;;;;;;7.35;4.18;;;23.50;1.00;;;;;;7354681;19;20014;-65
2022/08/22 09:02:55;;;;;;;5.28;4.78;;;23.70;1.00;;;;;;7358593;19;20027;-65
2022/08/22 09:05:59;;;;;;;6.20;4.47;;;23.40;1.00;;;;;;7352678;19;20026;-65
2022/08/22 09:08:54;;;;;;;6.57;4.07;;;23.80;1.00;;;;;;7356418;19;20011;-65
2022/08/22 09:11:46;;;;;;;6.40;4.00;;;23.90;1.00;;;;;;7352419;19;20011;-65
2022/08/22 09:14:34;;;;;;;5.32;4.40;;;24.10;1.00;;;;;;7356392;19;20038;-65
2022/08/22 09:17:36;;;;;;;5.32;4.00;;;24.60;1.00;;;;;;7357071;19;20018;-66
2022/08/22 09:20:46;;;;;;;7.57;4.13;;;24.40;1.00;;;;;;7354245;19;20031;-65
2022/08/22 09:23:52;;;;;;;5.63;4.40;;;24.40;1.00;;;;;;7357796;19;20475;-65
2022/08/22 09:26:29;;;;;;;5.25;4.32;;;24.20;1.00;;;;;;7352768;19;20368;-65
2022/08/22 09:29:34;;;;;;;12.48;4.55;;;24.40;1.00;;;;;;7360359;19;20002;-65
2022/08/22 09:32:34;;;;;;;5.57;3.92;;;24.70;1.00;;;;;;7367146;19;20021;-64
2022/08/22 09:35:14;;;;;;;5.60;4.30;;;24.80;1.00;;;;;;7361277;19;20018;-66
2022/08/22 09:38:22;;;;;;;8.15;4.72;;;25.00;1.00;;;;;;7365891;19;20054;-65
2022/08/22 09:41:01;;;;;;;5.00;4.50;;;24.60;1.00;;;;;;7360214;19;20014;-65
2022/08/22 09:43:38;;;;;;;5.22;4.20;;;25.10;1.00;;;;;;7366026;19;20018;-66
2022/08/22 09:46:21;;;;;;;5.47;4.57;;;25.10;1.00;;;;;;7359810;19;20402;-65
2022/08/22 09:49:13;;;;;;;4.88;4.22;;;25.00;1.00;;;;;;7367049;19;20079;-66
2022/08/22 09:51:55;;;;;;;6.65;4.13;;;24.90;1.00;;;;;;7361426;19;20034;-65
2022/08/22 09:54:32;;;;;;;4.95;4.00;;;25.30;1.00;;;;;;7363366;19;20022;-66
2022/08/22 09:57:11;;;;;;;5.45;4.28;;;25.50;1.00;;;;;;7385024;19;20023;-66
2022/08/22 09:59:55;;;;;;;5.70;3.72;;;25.40;1.00;;;;;;7363649;19;20506;-66
2022/08/22 10:02:35;;;;;;;4.07;3.60;;;26.00;1.00;;;;;;7364602;19;20748;-65
2022/08/22 10:05:25;;;;;;;6.25;3.70;;;26.10;1.00;;;;;;7358586;19;20794;-65
2022/08/22 10:08:33;;;;;;;4.30;3.70;;;26.10;1.00;;;;;;7364098;19;20017;-66
2022/08/22 10:11:24;;;;;;;4.45;4.05;;;26.20;1.00;;;;;;7359749;19;20399;-65
2022/08/22 10:14:01;;;;;;;5.40;4.10;;;26.10;1.00;;;;;;7364175;19;20683;-66
2022/08/22 10:16:55;;;;;;;4.82;3.80;;;26.50;1.00;;;;;;7358139;19;20022;-66
2022/08/22 10:19:30;;;;;;;3.95;3.35;;;26.50;1.00;;;;;;7365801;19;20010;-65
2022/08/22 10:22:25;;;;;;;4.95;3.63;;;26.40;1.00;;;;;;7359391;19;20014;-65
2022/08/22 10:25:33;;;;;;;4.43;3.28;;;26.20;1.00;;;;;;7359568;19;20488;-66
2022/08/22 10:28:21;;;;;;;3.65;3.33;;;26.60;1.00;;;;;;7363095;19;20094;-65
2022/08/22 10:31:01;;;;;;;4.07;3.55;;;26.80;1.00;;;;;;7357959;19;20109;-65
2022/08/22 10:33:36;;;;;;;4.70;3.50;;;26.40;1.00;;;;;;7362630;19;20014;-65
2022/08/22 10:36:12;;;;;;;5.10;3.67;;;26.50;1.00;;;;;;7380711;19;20022;-66
2022/08/22 10:38:47;;;;;;;;;;;26.70;1.00;;;;;;7361417;19;20031;-67
2022/08/22 10:41:29;;;;;;;4.63;3.83;;;26.80;1.00;;;;;;7357106;19;20498;-66
2022/08/22 10:44:06;;;;;;;4.45;2.95;;;26.80;1.00;;;;;;7363068;19;20106;-66
2022/08/22 10:46:45;;;;;;;6.03;3.60;;;26.60;1.00;;;;;;7358178;19;20018;-66
2022/08/22 10:49:25;;;;;;;4.50;3.15;;;26.50;1.00;;;;;;7364594;19;20379;-66
2022/08/22 10:52:04;;;;;;;3.50;3.00;;;26.60;1.00;;;;;;7359111;19;20010;-66
2022/08/22 10:54:51;;;;;;;3.85;3.15;;;26.90;1.00;;;;;;7360286;19;20494;-66
2022/08/22 10:57:45;;;;;;;5.30;3.08;;;27.00;1.00;;;;;;7374922;19;20014;-66
2022/08/22 11:00:36;;;;;;;4.10;3.38;;;26.70;1.00;;;;;;7374947;19;20479;-66
2022/08/22 11:03:20;;;;;;;4.38;2.88;;;27.10;1.00;;;;;;7386700;19;20036;-66
2022/08/22 11:05:56;;;;;;;3.45;2.97;;;26.70;1.00;;;;;;7357208;19;20024;-65
2022/08/22 11:08:46;;;;;;;3.13;2.60;;;27.50;1.00;;;;;;7364010;19;20007;-66
2022/08/22 11:11:37;;;;;;;5.50;3.33;;;27.30;1.00;;;;;;7357713;19;20644;-65
2022/08/22 11:14:27;;;;;;;4.35;2.95;;;27.80;1.00;;;;;;7361807;19;20007;-66
2022/08/22 11:17:06;;;;;;;5.43;3.10;;;28.00;1.00;;;;;;7361688;19;20022;-67
2022/08/22 11:20:10;;;;;;;3.90;2.85;;;27.90;1.00;;;;;;7356740;19;20029;-66
2022/08/22 11:22:48;;;;;;;3.22;2.92;;;27.90;1.00;;;;;;7362867;19;20010;-66
2022/08/22 11:25:45;;;;;;;4.68;2.60;;;28.30;1.00;;;;;;7356627;19;20047;-65
2022/08/22 11:29:01;;;;;;;5.88;2.75;;;27.80;1.00;;;;;;7361278;19;20019;-66
2022/08/22 11:31:50;;;;;;;3.08;2.13;;;28.20;1.00;;;;;;7356546;19;20097;-66
2022/08/22 11:34:35;;;;;;;3.83;2.30;;;28.60;1.00;;;;;;7358982;19;20170;-66
2022/08/22 11:37:10;;;;;;;3.60;2.40;;;28.40;1.00;;;;;;7361383;19;20022;-65
2022/08/22 11:39:47;;;;;;;3.25;2.38;;;28.50;1.00;;;;;;7362599;19;20019;-66
2022/08/22 11:42:24;;;;;;;4.63;2.72;;;28.50;1.00;;;;;;7383704;19;20035;-66
2022/08/22 11:45:03;;;;;;;5.22;2.78;;;28.70;1.00;;;;;;7357684;19;20098;-66
2022/08/22 11:47:38;;;;;;;3.22;2.53;;;28.60;1.00;;;;;;7360258;19;20015;-66
2022/08/22 11:50:17;;;;;;;7.03;2.72;;;28.50;1.00;;;;;;7357381;19;20011;-66
2022/08/22 11:53:05;;;;;;;5.22;2.03;;;28.40;1.00;;;;;;7358368;19;20019;-67
2022/08/22 11:55:41;;;;;;;4.10;2.92;;;28.90;1.00;;;;;;7357358;19;20482;-67
2022/08/22 11:58:27;;;;;;;4.70;3.15;;;28.40;1.00;;;;;;7360124;19;20014;-65
2022/08/22 12:01:05;;;;;;;4.85;3.05;;;28.40;1.00;;;;;;7356776;19;20015;-66
2022/08/22 12:04:17;;;;;;;6.40;2.92;;;28.30;1.00;;;;;;7362369;19;20018;-66
2022/08/22 12:07:03;;;;;;;4.90;2.55;;;28.50;1.00;;;;;;7355217;19;20010;-66
2022/08/22 12:09:50;;;;;;;3.85;2.55;;;28.60;1.00;;;;;;7362515;19;20635;-67
2022/08/22 12:12:33;;;;;;;3.65;2.78;;;29.00;1.00;;;;;;7383158;19;20073;-67
2022/08/22 12:15:12;;;;;;;3.53;2.30;;;28.90;1.00;;;;;;7357995;19;20125;-66
2022/08/22 12:18:10;;;;;;;3.78;2.65;;;28.80;1.00;;;;;;7359137;19;20015;-65
2022/08/22 12:21:11;;;;;;;3.35;2.30;;;28.70;1.00;;;;;;7357683;19;20028;-67
2022/08/22 12:24:19;;;;;;;4.43;2.80;;;28.70;1.00;;;;;;7360732;19;20017;-65
2022/08/22 12:27:03;;;;;;;2.97;2.67;;;28.50;1.00;;;;;;7355960;19;20038;-65
2022/08/22 12:29:45;;;;;;;3.75;2.53;;;28.90;1.00;;;;;;7358980;19;20014;-66
2022/08/22 12:32:41;;;;;;;3.72;3.00;;;28.70;1.00;;;;;;7359059;19;20015;-66
2022/08/22 12:35:30;;;;;;;4.55;2.90;;;28.10;1.00;;;;;;7357325;19;20006;-66
2022/08/22 12:38:12;;;;;;;4.00;2.60;;;28.20;1.00;;;;;;7360313;19;20474;-65
2022/08/22 12:41:20;;;;;;;4.38;2.50;;;28.70;1.00;;;;;;7356505;19;20018;-66
2022/08/22 12:44:19;;;;;;;4.65;3.10;;;28.90;1.00;;;;;;7359845;19;20804;-66
2022/08/22 12:47:05;;;;;;;4.30;3.08;;;29.40;1.00;;;;;;7357055;19;20023;-67
2022/08/22 12:49:55;;;;;;;3.05;2.50;;;29.40;1.00;;;;;;7361323;19;20050;-65
2022/08/22 12:52:44;;;;;;;3.88;2.67;;;29.30;1.00;;;;;;7359685;19;20010;-68
2022/08/22 12:55:33;;;;;;;3.30;2.55;;;29.30;1.00;;;;;;7357166;19;20121;-66
2022/08/22 12:58:10;;;;;;;2.83;2.40;;;29.10;1.00;;;;;;7360590;19;20081;-66
2022/08/22 13:00:43;;;;;;;3.38;2.90;;;29.60;1.00;;;;;;7355932;19;20011;-66
2022/08/22 13:03:24;;;;;;;5.32;2.50;;;29.60;1.00;;;;;;7380183;19;20015;-66
2022/08/22 13:05:55;;;;;;;3.00;2.40;;;29.10;1.00;;;;;;7361749;19;20017;-66
2022/08/22 13:08:36;;;;;;;5.60;2.50;;;29.10;1.00;;;;;;7366907;19;20014;-67
2022/08/22 13:11:10;;;;;;;2.95;2.42;;;28.70;1.00;;;;;;7361609;19;20011;-66
2022/08/22 13:13:55;;;;;;;4.18;2.65;;;28.30;1.00;;;;;;7352495;19;20050;-65
2022/08/22 13:16:27;;;;;;;3.75;2.47;;;28.40;1.00;;;;;;7378069;19;20094;-67
2022/08/22 13:19:02;;;;;;;4.32;2.95;;;28.70;1.00;;;;;;7365985;19;20082;-66
2022/08/22 13:21:43;;;;;;;2.95;2.50;;;28.70;1.00;;;;;;7361818;19;20018;-66
2022/08/22 13:24:20;;;;;;;4.50;2.92;;;28.70;1.00;;;;;;7364968;19;20030;-66
2022/08/22 13:27:15;;;;;;;3.88;2.50;;;29.40;1.00;;;;;;7363529;19;20026;-67
2022/08/22 13:29:54;;;;;;;4.18;2.67;;;29.30;1.00;;;;;;7362601;19;20095;-66
2022/08/22 13:32:32;;;;;;;3.25;2.58;;;29.30;1.00;;;;;;7364727;19;20031;-66
2022/08/22 13:35:04;;;;;;;3.35;2.67;;;29.60;1.00;;;;;;7361051;19;20015;-66
2022/08/22 13:37:39;;;;;;;2.92;2.53;;;29.70;1.00;;;;;;7385361;19;20018;-67
2022/08/22 13:40:23;;;;;;;4.20;2.63;;;29.80;1.00;;;;;;7363012;19;20010;-67
2022/08/22 13:43:02;;;;;;;3.33;2.30;;;29.70;1.00;;;;;;7364232;19;20011;-66
2022/08/22 13:45:34;;;;;;;3.45;2.67;;;29.30;1.00;;;;;;7361776;19;20595;-67
2022/08/22 13:48:10;;;;;;;2.97;2.65;;;29.30;1.00;;;;;;7364589;19;20022;-67
2022/08/22 13:50:57;;;;;;;3.03;2.47;;;29.10;1.00;;;;;;7362018;19;20078;-68
2022/08/22 13:53:36;;;;;;;4.28;2.70;;;29.40;1.00;;;;;;7366217;19;20032;-66
2022/08/22 13:56:15;;;;;;;3.30;2.38;;;29.50;1.00;;;;;;7362038;19;20374;-68
2022/08/22 13:58:48;;;;;;;2.97;2.47;;;28.90;1.00;;;;;;7366997;19;20023;-67
2022/08/22 14:01:40;;;;;;;3.08;2.50;;;28.70;1.00;;;;;;7382281;19;20585;-66
2022/08/22 14:04:20;;;;;;;2.85;2.55;;;29.20;1.00;;;;;;7363435;19;20029;-67
2022/08/22 14:07:25;;;;;;;4.25;2.60;;;29.60;1.00;;;;;;7358922;19;20041;-65
2022/08/22 14:09:57;;;;;;;2.70;2.50;;;29.50;1.00;;;;;;7357601;19;20494;-65
2022/08/22 14:12:36;;;;;;;2.97;2.40;;;29.30;1.00;;;;;;7364222;19;20019;-66
2022/08/22 14:15:24;;;;;;;3.85;2.50;;;29.50;1.00;;;;;;7359134;19;20011;-66
2022/08/22 14:18:10;;;;;;;6.65;2.88;;;29.10;1.00;;;;;;7360985;19;20036;-65
2022/08/22 14:20:42;;;;;;;3.67;2.80;;;28.90;1.00;;;;;;7360292;19;20034;-66
2022/08/22 14:23:17;;;;;;;4.53;2.72;;;28.70;1.00;;;;;;7361390;19;20038;-65
2022/08/22 14:25:53;;;;;;;2.72;2.50;;;28.60;1.00;;;;;;7359851;19;20103;-65